Time;durP1;ratioP1;P1;durP2;ratioP2;P2;SDS_P1;SDS_P2;PMS_P1;PMS_P2;Temp;Humidity;BMP_temperature;BMP_pressure;BME280_temperature;BME280_humidity;BME280_pressure;Samples;Min_cycle;Max_cycle;Signal;HPM_P1;HPM_P2
2024/03/31 00:00:30;;;;;;;17.15;4.32;;;9.30;99.90;;;;;;4997729;28;20670;-81
2024/03/31 00:02:56;;;;;;;16.08;4.40;;;9.20;99.90;;;;;;5015093;28;20663;-81
2024/03/31 00:05:22;;;;;;;17.30;4.30;;;9.10;99.90;;;;;;5014984;28;20163;-80
2024/03/31 00:07:47;;;;;;;18.23;5.27;;;9.10;99.90;;;;;;5015245;28;20412;-80
2024/03/31 00:10:13;;;;;;;16.50;4.43;;;9.10;99.90;;;;;;5014576;28;20187;-81
2024/03/31 00:12:43;;;;;;;17.03;4.43;;;9.00;99.90;;;;;;5015311;28;20249;-81
2024/03/31 00:15:09;;;;;;;19.45;5.13;;;9.00;99.90;;;;;;5015257;28;20162;-81
2024/03/31 00:17:35;;;;;;;16.20;4.27;;;9.00;99.90;;;;;;4997466;28;20266;-80
2024/03/31 00:20:00;;;;;;;16.17;4.40;;;9.00;99.90;;;;;;5015179;28;20766;-81
2024/03/31 00:22:26;;;;;;;16.70;4.70;;;9.00;99.90;;;;;;4997442;28;20201;-81
2024/03/31 00:24:52;;;;;;;21.07;5.60;;;9.00;99.90;;;;;;5014833;28;20670;-80
2024/03/31 00:27:17;;;;;;;18.33;5.20;;;8.90;99.90;;;;;;5014744;28;20578;-81
2024/03/31 00:29:43;;;;;;;20.80;4.73;;;8.90;99.90;;;;;;5013963;28;20668;-81
2024/03/31 00:32:09;;;;;;;18.03;4.30;;;8.90;99.90;;;;;;5014698;28;20190;-80
2024/03/31 00:34:34;;;;;;;17.77;4.97;;;8.80;99.90;;;;;;5015173;28;20261;-80
2024/03/31 00:37:00;;;;;;;17.93;4.43;;;8.80;99.90;;;;;;5014696;28;20221;-81
2024/03/31 00:39:26;;;;;;;16.40;4.57;;;8.90;99.90;;;;;;5014573;28;20205;-80
2024/03/31 00:41:52;;;;;;;17.97;4.73;;;8.90;99.90;;;;;;5014708;28;20186;-80
2024/03/31 00:44:17;;;;;;;18.10;5.97;;;8.90;99.90;;;;;;5014354;28;20225;-80
2024/03/31 00:46:43;;;;;;;16.53;5.03;;;8.90;99.90;;;;;;4997113;28;20414;-80
2024/03/31 00:49:10;;;;;;;16.60;4.87;;;8.90;99.90;;;;;;5015090;28;20171;-80
2024/03/31 00:51:35;;;;;;;20.05;5.40;;;8.90;99.90;;;;;;4996780;28;20191;-80
2024/03/31 00:54:01;;;;;;;18.27;4.30;;;8.80;99.90;;;;;;5014943;28;20535;-81
2024/03/31 00:56:27;;;;;;;17.13;5.60;;;8.80;99.90;;;;;;5014728;28;20170;-81
2024/03/31 00:58:53;;;;;;;17.27;5.90;;;8.80;99.90;;;;;;5014428;28;20401;-80
2024/03/31 01:01:19;;;;;;;16.87;5.27;;;8.80;99.90;;;;;;5014372;28;20182;-81
2024/03/31 01:03:44;;;;;;;17.53;5.03;;;8.80;99.90;;;;;;5014604;28;20194;-81
2024/03/31 01:06:14;;;;;;;18.70;5.83;;;8.80;99.90;;;;;;5014341;28;20409;-81
2024/03/31 01:08:43;;;;;;;17.65;4.80;;;8.80;99.90;;;;;;5014747;28;20224;-81
2024/03/31 01:11:09;;;;;;;19.38;6.00;;;8.80;99.90;;;;;;5014610;28;20769;-80
2024/03/31 01:13:35;;;;;;;17.58;5.47;;;8.90;99.90;;;;;;4996600;28;20210;-81
2024/03/31 01:16:01;;;;;;;16.05;5.15;;;8.90;99.90;;;;;;5014954;28;20527;-80
2024/03/31 01:18:27;;;;;;;18.92;6.13;;;9.00;99.90;;;;;;5014884;28;20177;-81
2024/03/31 01:20:53;;;;;;;17.50;5.60;;;9.00;99.90;;;;;;4996592;28;20198;-80
2024/03/31 01:23:21;;;;;;;19.42;5.50;;;9.00;99.90;;;;;;5014298;28;20495;-80
2024/03/31 01:25:47;;;;;;;19.63;5.88;;;9.00;99.90;;;;;;5014433;28;20185;-80
2024/03/31 01:28:12;;;;;;;18.47;5.80;;;9.00;99.90;;;;;;4996666;28;20170;-81
2024/03/31 01:30:38;;;;;;;17.17;5.10;;;9.00;99.90;;;;;;5013935;28;20224;-80
2024/03/31 01:33:04;;;;;;;17.90;4.97;;;9.00;99.90;;;;;;5013956;28;20246;-80
2024/03/31 01:35:30;;;;;;;20.98;5.60;;;8.90;99.90;;;;;;5014339;28;20629;-81
2024/03/31 01:37:55;;;;;;;20.23;7.07;;;9.00;99.90;;;;;;5013983;28;20213;-81
2024/03/31 01:40:21;;;;;;;19.47;6.40;;;9.00;99.90;;;;;;5015700;28;20163;-81
2024/03/31 01:42:47;;;;;;;20.03;6.27;;;9.10;99.90;;;;;;5017527;28;20187;-80
2024/03/31 01:45:20;;;;;;;18.00;5.15;;;9.20;99.90;;;;;;5018267;28;20163;-81
2024/03/31 01:47:46;;;;;;;18.65;6.00;;;9.20;99.90;;;;;;5017893;28;20531;-80
2024/03/31 01:50:11;;;;;;;17.77;6.30;;;9.30;99.90;;;;;;4999971;28;20305;-80
2024/03/31 01:52:37;;;;;;;17.67;5.43;;;9.30;99.90;;;;;;5000018;28;20425;-80
2024/03/31 01:55:03;;;;;;;20.07;6.33;;;9.40;99.90;;;;;;5017865;28;20170;-80
2024/03/31 01:57:28;;;;;;;19.90;5.70;;;9.40;99.90;;;;;;5017332;28;20167;-80
2024/03/31 01:59:54;;;;;;;17.90;5.30;;;9.50;99.90;;;;;;5017492;28;20413;-80
2024/03/31 02:02:20;;;;;;;18.70;6.10;;;9.40;99.90;;;;;;5017147;28;20182;-80
2024/03/31 02:04:45;;;;;;;18.60;6.00;;;9.50;99.90;;;;;;5017152;28;20194;-80
2024/03/31 02:07:11;;;;;;;18.07;5.83;;;9.50;99.90;;;;;;5017525;28;20189;-80
2024/03/31 02:09:37;;;;;;;18.37;6.00;;;9.50;99.90;;;;;;5017012;28;20620;-79
2024/03/31 02:12:03;;;;;;;18.93;5.60;;;9.50;99.90;;;;;;5017176;28;20189;-80
2024/03/31 02:14:28;;;;;;;20.50;6.17;;;9.60;99.90;;;;;;4999531;28;20166;-81
2024/03/31 02:16:55;;;;;;;20.63;5.93;;;9.60;99.90;;;;;;4999221;28;20483;-79
2024/03/31 02:19:24;;;;;;;18.40;6.13;;;9.60;99.90;;;;;;5016944;28;20667;-80
2024/03/31 02:21:50;;;;;;;21.23;6.72;;;9.60;99.90;;;;;;4999759;28;20190;-81
2024/03/31 02:24:16;;;;;;;18.63;5.53;;;9.60;99.90;;;;;;5016723;28;20194;-81
2024/03/31 02:26:41;;;;;;;22.43;6.33;;;9.70;99.90;;;;;;5017270;28;20647;-81
2024/03/31 02:29:07;;;;;;;22.60;6.83;;;9.70;99.90;;;;;;4999133;28;20406;-80
2024/03/31 02:31:33;;;;;;;18.10;6.10;;;9.70;99.90;;;;;;5016497;28;20270;-80
2024/03/31 02:33:58;;;;;;;22.20;7.03;;;9.70;99.90;;;;;;5017260;28;20190;-80
2024/03/31 02:36:24;;;;;;;19.60;5.57;;;9.70;99.90;;;;;;5016808;28;20240;-80
2024/03/31 02:38:50;;;;;;;20.07;5.57;;;9.70;99.90;;;;;;5016489;28;20237;-80
2024/03/31 02:41:15;;;;;;;19.80;6.00;;;9.70;99.90;;;;;;5016743;28;20191;-79
2024/03/31 02:43:41;;;;;;;19.57;6.33;;;9.70;99.90;;;;;;5016398;28;20607;-81
2024/03/31 02:46:06;;;;;;;18.13;5.57;;;9.70;99.90;;;;;;5016223;28;20210;-80
2024/03/31 02:48:32;;;;;;;17.30;5.50;;;9.70;99.90;;;;;;5016282;28;20162;-80
2024/03/31 02:50:58;;;;;;;19.50;5.00;;;9.70;99.90;;;;;;5016454;28;20169;-80
2024/03/31 02:53:23;;;;;;;18.63;5.10;;;9.70;99.90;;;;;;5016171;28;20190;-80
2024/03/31 02:55:49;;;;;;;15.80;4.00;;;9.70;99.90;;;;;;5016558;28;20177;-80
2024/03/31 02:58:14;;;;;;;17.43;4.87;;;9.70;99.90;;;;;;4998695;28;20182;-80
2024/03/31 03:00:40;;;;;;;19.70;4.77;;;9.70;99.90;;;;;;5016031;28;20547;-81
2024/03/31 03:03:06;;;;;;;21.43;4.47;;;9.70;99.90;;;;;;5016484;28;20163;-81
2024/03/31 03:05:31;;;;;;;20.90;4.67;;;9.70;99.90;;;;;;5016412;28;20665;-81
2024/03/31 03:08:00;;;;;;;19.47;4.37;;;9.70;99.90;;;;;;5016335;28;20253;-80
2024/03/31 03:10:25;;;;;;;20.50;4.03;;;9.70;99.90;;;;;;5103402;22;20230;-81
2024/03/31 03:12:51;;;;;;;18.17;3.60;;;9.70;99.90;;;;;;5036641;28;20196;-81
2024/03/31 03:15:16;;;;;;;17.87;4.20;;;9.70;99.90;;;;;;5037155;28;20215;-81
2024/03/31 03:17:45;;;;;;;18.17;3.90;;;9.70;99.90;;;;;;5036622;28;20158;-80
2024/03/31 03:20:11;;;;;;;14.63;3.88;;;9.70;99.90;;;;;;5036491;28;20177;-80
2024/03/31 03:22:36;;;;;;;16.27;3.60;;;9.70;99.90;;;;;;5036366;28;20181;-80
2024/03/31 03:25:02;;;;;;;15.87;4.17;;;9.60;99.90;;;;;;5036163;28;20200;-80
2024/03/31 03:27:28;;;;;;;19.50;3.97;;;9.70;99.90;;;;;;5035854;28;20174;-80
2024/03/31 03:29:54;;;;;;;17.30;3.87;;;9.60;99.90;;;;;;5036358;28;20547;-79
2024/03/31 03:34:53;;;;;;;18.65;4.28;;;9.50;99.90;;;;;;5335202;22;20222;-79
2024/03/31 03:37:19;;;;;;;22.40;4.43;;;9.50;99.90;;;;;;5173629;22;20228;-80
2024/03/31 03:39:44;;;;;;;18.20;3.80;;;9.50;99.90;;;;;;5036975;28;20177;-80
2024/03/31 03:42:10;;;;;;;18.63;5.73;;;9.50;99.90;;;;;;5036759;28;20188;-80
2024/03/31 03:44:36;;;;;;;15.63;2.80;;;9.50;99.90;;;;;;5036902;28;20186;-79
2024/03/31 03:47:01;;;;;;;15.70;3.37;;;9.40;99.90;;;;;;5036737;28;20226;-80
2024/03/31 03:49:27;;;;;;;16.50;3.03;;;9.40;99.90;;;;;;5036862;28;20193;-83
2024/03/31 03:51:52;;;;;;;18.97;4.00;;;9.30;99.90;;;;;;5037002;28;20189;-83
2024/03/31 03:54:18;;;;;;;15.73;3.13;;;9.40;99.90;;;;;;5036918;28;20162;-82
2024/03/31 03:56:44;;;;;;;17.40;3.53;;;9.40;99.90;;;;;;5037226;28;20161;-82
2024/03/31 03:59:13;;;;;;;19.50;3.83;;;9.50;99.90;;;;;;5036695;28;20509;-81
2024/03/31 04:01:39;;;;;;;17.40;3.10;;;9.50;99.90;;;;;;5036289;28;20220;-83
2024/03/31 04:04:05;;;;;;;16.65;2.60;;;9.40;99.90;;;;;;5036589;28;20657;-82
2024/03/31 04:06:33;;;;;;;20.60;3.33;;;9.40;99.90;;;;;;5036619;28;20196;-83
2024/03/31 04:08:59;;;;;;;16.02;2.90;;;9.40;99.90;;;;;;5018833;28;20499;-83
2024/03/31 04:11:25;;;;;;;15.70;2.60;;;9.50;99.90;;;;;;5036683;28;20259;-82
2024/03/31 04:13:50;;;;;;;19.30;2.77;;;9.50;99.90;;;;;;5036411;28;20161;-82
2024/03/31 04:16:16;;;;;;;20.17;3.23;;;9.40;99.90;;;;;;5036244;28;20201;-82
2024/03/31 04:18:42;;;;;;;16.98;2.63;;;9.40;99.90;;;;;;5036321;28;20165;-83
2024/03/31 04:21:08;;;;;;;19.70;3.23;;;9.50;99.90;;;;;;5036480;28;20190;-82
2024/03/31 04:23:40;;;;;;;15.80;3.53;;;9.50;99.90;;;;;;5018662;28;20448;-82
2024/03/31 04:26:06;;;;;;;21.95;3.10;;;9.50;99.90;;;;;;5035698;28;20166;-83
2024/03/31 04:28:31;;;;;;;17.23;2.43;;;9.50;99.90;;;;;;5036307;28;20216;-82
2024/03/31 04:31:02;;;;;;;17.57;3.80;;;9.50;99.90;;;;;;5035968;28;20627;-82
2024/03/31 04:33:30;;;;;;;16.63;2.45;;;9.50;99.90;;;;;;5018095;28;20178;-82
2024/03/31 04:35:55;;;;;;;25.00;2.88;;;9.50;99.90;;;;;;5035610;28;20169;-82
2024/03/31 04:38:21;;;;;;;17.53;2.83;;;9.50;99.90;;;;;;5035951;28;20180;-82
2024/03/31 04:40:54;;;;;;;18.47;2.63;;;9.60;99.90;;;;;;5036206;28;20527;-83
2024/03/31 04:43:20;;;;;;;17.13;3.08;;;9.60;99.90;;;;;;5036192;28;20550;-82
2024/03/31 04:45:45;;;;;;;19.40;3.60;;;9.60;99.90;;;;;;5035773;28;20162;-82
2024/03/31 04:48:11;;;;;;;15.23;2.50;;;9.60;99.90;;;;;;5035607;28;20158;-83
2024/03/31 04:50:37;;;;;;;16.73;2.37;;;9.60;99.90;;;;;;5035830;28;20170;-83
2024/03/31 04:53:02;;;;;;;18.93;2.77;;;9.50;99.90;;;;;;5018172;28;20197;-83
2024/03/31 04:55:28;;;;;;;14.67;2.10;;;9.60;99.90;;;;;;5036016;28;20626;-83
2024/03/31 04:57:54;;;;;;;15.90;2.70;;;9.60;99.90;;;;;;5035618;28;20523;-82
2024/03/31 05:00:20;;;;;;;17.53;2.23;;;9.60;99.90;;;;;;5018167;28;20162;-83
2024/03/31 05:02:47;;;;;;;16.88;2.42;;;9.70;99.90;;;;;;5035353;28;20189;-83
2024/03/31 05:05:12;;;;;;;15.77;3.42;;;9.60;99.90;;;;;;5035842;28;20193;-83
2024/03/31 05:07:38;;;;;;;16.37;2.97;;;9.60;99.90;;;;;;5017755;28;20195;-82
2024/03/31 05:10:04;;;;;;;18.03;2.43;;;9.70;99.90;;;;;;5035229;28;20166;-82
2024/03/31 05:12:30;;;;;;;15.73;3.07;;;9.60;99.90;;;;;;5035636;28;20647;-82
2024/03/31 05:14:55;;;;;;;17.17;4.40;;;9.60;99.90;;;;;;5036138;28;20219;-83
2024/03/31 05:17:21;;;;;;;16.60;3.13;;;9.60;99.90;;;;;;5038952;28;20408;-82
2024/03/31 05:19:54;;;;;;;17.50;3.07;;;9.60;99.90;;;;;;5039606;28;20172;-82
2024/03/31 05:22:20;;;;;;;15.35;2.30;;;9.60;99.90;;;;;;5021439;28;20194;-82
2024/03/31 05:24:46;;;;;;;15.02;1.92;;;9.60;99.90;;;;;;5039381;28;20185;-82
2024/03/31 05:27:11;;;;;;;16.83;2.60;;;9.70;99.90;;;;;;5021181;28;20531;-82
2024/03/31 05:29:37;;;;;;;16.80;2.17;;;9.70;99.90;;;;;;5038854;28;20162;-83
2024/03/31 05:32:03;;;;;;;16.70;2.57;;;9.70;99.90;;;;;;5039450;28;20186;-82
2024/03/31 05:34:28;;;;;;;16.40;2.60;;;9.80;99.90;;;;;;5038872;28;20240;-82
2024/03/31 05:36:54;;;;;;;20.13;2.83;;;9.70;99.90;;;;;;5038856;28;20184;-83
2024/03/31 05:39:19;;;;;;;14.93;2.97;;;9.70;99.90;;;;;;5022418;28;20174;-83
2024/03/31 05:41:45;;;;;;;16.23;2.77;;;9.80;99.90;;;;;;5039777;28;20190;-83
2024/03/31 05:44:11;;;;;;;23.50;2.63;;;9.80;99.90;;;;;;5038616;28;20235;-83
2024/03/31 05:46:36;;;;;;;15.40;2.23;;;9.80;99.90;;;;;;5038984;28;20174;-83
2024/03/31 05:49:02;;;;;;;18.00;2.90;;;9.80;99.90;;;;;;5021491;28;20174;-82
2024/03/31 05:51:28;;;;;;;19.37;3.60;;;9.80;99.90;;;;;;5038878;28;20182;-82
2024/03/31 05:53:54;;;;;;;13.98;2.30;;;9.80;99.90;;;;;;5021201;28;20201;-83
2024/03/31 05:56:19;;;;;;;16.83;3.40;;;9.80;99.90;;;;;;5039524;28;20177;-83
2024/03/31 05:58:45;;;;;;;19.23;2.60;;;9.70;99.90;;;;;;5038933;28;20658;-83
2024/03/31 06:01:11;;;;;;;18.40;2.60;;;9.70;99.90;;;;;;5039119;28;20272;-83
2024/03/31 06:03:36;;;;;;;19.47;3.20;;;9.80;99.90;;;;;;5039864;28;20254;-83
2024/03/31 06:06:02;;;;;;;19.93;2.77;;;9.90;99.90;;;;;;5039641;28;20170;-83
2024/03/31 06:08:28;;;;;;;14.83;2.43;;;9.90;99.90;;;;;;5020519;28;20173;-83
2024/03/31 06:10:57;;;;;;;13.53;1.67;;;10.00;99.90;;;;;;5038426;28;20535;-83
2024/03/31 06:13:22;;;;;;;18.40;2.78;;;10.00;99.90;;;;;;5038252;28;20178;-83
2024/03/31 06:15:48;;;;;;;18.60;3.00;;;10.00;99.90;;;;;;5037834;28;20177;-83
2024/03/31 06:18:14;;;;;;;22.20;2.83;;;10.00;99.90;;;;;;5038182;28;20170;-82
2024/03/31 06:20:42;;;;;;;16.13;2.33;;;10.00;99.90;;;;;;5037917;28;20705;-84
2024/03/31 06:23:08;;;;;;;15.55;2.00;;;10.00;99.90;;;;;;5037889;28;20174;-83
2024/03/31 06:25:33;;;;;;;17.83;2.23;;;10.10;99.90;;;;;;5037353;28;20158;-83
2024/03/31 06:27:59;;;;;;;20.93;2.50;;;10.10;99.90;;;;;;5037309;28;20193;-83
2024/03/31 06:30:25;;;;;;;15.80;2.67;;;10.10;99.90;;;;;;5037094;28;20158;-82
2024/03/31 06:32:50;;;;;;;13.73;2.30;;;10.20;99.90;;;;;;5037273;28;20663;-82
2024/03/31 06:35:16;;;;;;;19.93;2.37;;;10.20;99.90;;;;;;5036872;28;20166;-82
2024/03/31 06:37:42;;;;;;;14.60;2.20;;;10.20;99.90;;;;;;5037199;28;20181;-82
2024/03/31 06:40:07;;;;;;;24.63;3.80;;;10.30;99.90;;;;;;5037240;28;20527;-82
2024/03/31 06:42:33;;;;;;;15.80;2.20;;;10.30;99.90;;;;;;5036502;28;20201;-82
2024/03/31 06:44:59;;;;;;;19.23;3.10;;;10.30;99.90;;;;;;5036945;28;20444;-82
2024/03/31 06:47:25;;;;;;;18.50;2.60;;;10.30;99.90;;;;;;5036800;28;20189;-82
2024/03/31 06:49:50;;;;;;;16.40;2.50;;;10.40;99.90;;;;;;5018951;28;20177;-82
2024/03/31 06:52:16;;;;;;;18.43;3.17;;;10.40;99.90;;;;;;5117801;22;20484;-82
2024/03/31 06:54:44;;;;;;;20.90;3.70;;;10.40;99.90;;;;;;5036900;28;20177;-83
2024/03/31 06:57:10;;;;;;;17.30;2.80;;;10.50;99.90;;;;;;5039734;28;20177;-83
2024/03/31 06:59:36;;;;;;;18.13;2.13;;;10.60;99.90;;;;;;5038988;28;20197;-83
2024/03/31 07:02:01;;;;;;;19.70;2.27;;;10.60;99.90;;;;;;5039186;28;20193;-83
2024/03/31 07:04:27;;;;;;;13.87;2.80;;;10.70;99.90;;;;;;5021055;28;20204;-82
2024/03/31 07:06:53;;;;;;;27.30;3.93;;;10.80;99.90;;;;;;5039483;28;20166;-83
2024/03/31 07:09:18;;;;;;;27.00;3.33;;;10.90;99.90;;;;;;5038962;28;20177;-83
2024/03/31 07:11:44;;;;;;;15.77;2.80;;;10.90;99.90;;;;;;5038962;28;20192;-84
2024/03/31 07:14:10;;;;;;;18.90;4.67;;;11.00;99.90;;;;;;5021489;28;20201;-83
2024/03/31 07:16:53;;;;;;;18.97;2.90;;;11.10;99.90;;;;;;5038633;28;20172;-83
2024/03/31 07:19:19;;;;;;;16.13;2.90;;;11.20;99.90;;;;;;5038985;28;20527;-84
2024/03/31 07:21:45;;;;;;;15.63;2.50;;;11.20;99.90;;;;;;5039100;28;20185;-83
2024/03/31 07:24:10;;;;;;;16.17;2.40;;;11.20;99.90;;;;;;5038930;28;20248;-83
2024/03/31 07:26:36;;;;;;;15.63;3.07;;;11.20;99.90;;;;;;5020728;28;20162;-83
2024/03/31 07:29:04;;;;;;;16.20;2.67;;;11.30;99.90;;;;;;5038813;28;20654;-84
2024/03/31 07:31:33;;;;;;;16.00;2.53;;;11.40;99.90;;;;;;5020614;28;20296;-83
2024/03/31 07:34:00;;;;;;;25.52;3.33;;;11.40;99.90;;;;;;5038803;28;20166;-83
2024/03/31 07:36:25;;;;;;;17.38;2.50;;;11.40;99.90;;;;;;5021401;28;20216;-83
2024/03/31 07:38:51;;;;;;;17.73;2.73;;;11.50;99.90;;;;;;5037827;28;20181;-83
2024/03/31 07:41:45;;;;;;;24.60;2.60;;;11.40;99.90;;;;;;5038089;28;20213;-83
2024/03/31 07:44:11;;;;;;;16.20;2.03;;;11.50;99.90;;;;;;5036368;28;20208;-83
2024/03/31 07:46:37;;;;;;;21.75;2.35;;;11.50;99.90;;;;;;5036074;28;20169;-83
2024/03/31 07:49:03;;;;;;;18.05;2.03;;;11.50;99.90;;;;;;5018021;28;20193;-82
2024/03/31 07:51:29;;;;;;;15.63;2.20;;;11.60;99.90;;;;;;5035921;28;20745;-82
2024/03/31 07:53:55;;;;;;;14.37;2.00;;;11.70;99.90;;;;;;5036068;28;20171;-83
2024/03/31 07:56:20;;;;;;;30.02;2.47;;;11.80;99.90;;;;;;5036280;28;20220;-83
2024/03/31 07:58:46;;;;;;;20.00;2.63;;;11.90;99.90;;;;;;5035534;28;20169;-83
2024/03/31 08:01:12;;;;;;;18.63;2.33;;;11.90;99.90;;;;;;5035475;28;20189;-82
2024/03/31 08:03:37;;;;;;;17.03;1.90;;;12.00;99.90;;;;;;5035510;28;20182;-83
2024/03/31 08:06:03;;;;;;;22.00;3.10;;;12.10;99.90;;;;;;5035789;28;20612;-83
2024/03/31 08:08:29;;;;;;;15.17;1.77;;;12.10;99.90;;;;;;5035628;28;20252;-83
2024/03/31 08:10:54;;;;;;;19.33;2.10;;;12.20;99.90;;;;;;5035469;28;20401;-83
2024/03/31 08:13:21;;;;;;;19.43;1.97;;;12.20;99.90;;;;;;5035304;28;20627;-83
2024/03/31 08:15:47;;;;;;;16.80;2.05;;;12.30;99.90;;;;;;5018011;28;20170;-83
2024/03/31 08:18:14;;;;;;;15.85;1.80;;;12.30;99.90;;;;;;5035793;28;20201;-84
2024/03/31 08:20:39;;;;;;;16.30;2.10;;;12.30;99.90;;;;;;5018064;28;20181;-84
2024/03/31 08:23:05;;;;;;;17.00;2.60;;;12.40;99.90;;;;;;5035578;28;20180;-84
2024/03/31 08:25:31;;;;;;;13.60;1.50;;;12.40;99.90;;;;;;5035881;28;20170;-83
2024/03/31 08:28:00;;;;;;;19.17;2.40;;;12.50;99.90;;;;;;5036642;28;20157;-83
2024/03/31 08:30:25;;;;;;;20.02;1.88;;;12.50;99.90;;;;;;5039391;28;20162;-84
2024/03/31 08:32:51;;;;;;;24.73;2.60;;;12.60;99.90;;;;;;5038769;28;20239;-83
2024/03/31 08:35:17;;;;;;;17.10;2.43;;;12.70;99.90;;;;;;5038415;28;20483;-84
2024/03/31 08:37:45;;;;;;;15.40;1.70;;;12.80;99.90;;;;;;5036340;28;20643;-83
2024/03/31 08:40:11;;;;;;;20.40;2.75;;;12.80;99.90;;;;;;5019607;28;20257;-83
2024/03/31 08:42:48;;;;;;;24.93;2.67;;;12.80;99.90;;;;;;5036424;28;20224;-83
2024/03/31 08:45:16;;;;;;;18.30;2.55;;;12.90;99.90;;;;;;5018488;28;20304;-83
2024/03/31 08:47:45;;;;;;;13.10;1.58;;;12.90;99.90;;;;;;5035658;28;20166;-83
2024/03/31 08:50:11;;;;;;;13.27;1.60;;;13.00;99.90;;;;;;5017274;28;20162;-83
2024/03/31 08:52:37;;;;;;;15.95;3.70;;;13.00;99.90;;;;;;5035785;28;20201;-83
2024/03/31 08:55:04;;;;;;;18.47;1.77;;;13.10;99.90;;;;;;5020015;28;20669;-82
2024/03/31 08:57:32;;;;;;;15.63;1.23;;;13.10;99.90;;;;;;5038414;28;20558;-82
2024/03/31 08:59:57;;;;;;;22.25;2.10;;;13.20;99.90;;;;;;5038614;28;20174;-82
2024/03/31 09:02:24;;;;;;;14.77;1.40;;;13.20;99.90;;;;;;5038168;28;20190;-82
2024/03/31 09:04:51;;;;;;;16.55;1.40;;;13.30;99.90;;;;;;5037455;28;20200;-82
2024/03/31 09:07:18;;;;;;;14.80;1.35;;;13.40;99.90;;;;;;5037352;28;20245;-82
2024/03/31 09:09:44;;;;;;;15.23;1.55;;;13.50;99.90;;;;;;5109789;22;20236;-85
2024/03/31 09:12:10;;;;;;;17.17;2.30;;;13.60;99.90;;;;;;5037862;28;20182;-85
2024/03/31 09:14:40;;;;;;;17.50;1.83;;;13.70;99.90;;;;;;5037618;28;20229;-86
2024/03/31 09:17:13;;;;;;;16.23;1.30;;;13.80;99.90;;;;;;5037819;28;20665;-85
2024/03/31 09:19:39;;;;;;;18.88;1.75;;;13.90;99.90;;;;;;5037662;28;20165;-85
2024/03/31 09:22:05;;;;;;;17.42;1.40;;;13.90;99.90;;;;;;5038532;28;20215;-85
2024/03/31 09:24:32;;;;;;;13.70;1.20;;;14.00;99.90;;;;;;5041530;28;20645;-86
2024/03/31 09:26:58;;;;;;;15.23;1.60;;;14.10;99.90;;;;;;5042557;28;20416;-86
2024/03/31 09:29:27;;;;;;;14.80;1.77;;;14.20;99.90;;;;;;5042220;28;20397;-86
2024/03/31 09:32:14;;;;;;;15.00;1.00;;;14.30;99.90;;;;;;5040639;28;20486;-86
2024/03/31 09:34:48;;;;;;;16.20;1.30;;;14.40;99.90;;;;;;5041289;28;20435;-86
2024/03/31 09:37:14;;;;;;;14.37;1.43;;;14.50;99.90;;;;;;5023410;28;20158;-86
2024/03/31 09:39:44;;;;;;;14.60;1.33;;;14.60;99.90;;;;;;5041886;28;20480;-86
2024/03/31 09:42:10;;;;;;;15.57;1.10;;;14.70;98.00;;;;;;5041418;28;20425;-86
2024/03/31 09:44:37;;;;;;;13.63;1.33;;;14.80;90.60;;;;;;5025125;28;20455;-86
2024/03/31 09:47:18;;;;;;;15.90;1.23;;;15.00;51.40;;;;;;5040236;28;20928;-86
2024/03/31 09:49:53;;;;;;;15.37;1.10;;;15.10;1.00;;;;;;5041241;28;20416;-86
2024/03/31 09:52:28;;;;;;;15.73;1.37;;;15.20;1.00;;;;;;5040991;28;20412;-86
2024/03/31 09:54:59;;;;;;;14.80;1.10;;;15.20;1.00;;;;;;5041231;28;20388;-86
2024/03/31 09:57:32;;;;;;;15.37;1.10;;;15.30;1.00;;;;;;5040832;28;20422;-86
2024/03/31 10:00:01;;;;;;;14.23;1.20;;;15.40;1.00;;;;;;5038664;28;20447;-86
2024/03/31 10:02:27;;;;;;;15.93;1.00;;;15.50;1.00;;;;;;5041293;28;20435;-87
2024/03/31 10:05:14;;;;;;;19.77;1.40;;;15.70;1.00;;;;;;5043714;28;20451;-86
2024/03/31 10:07:40;;;;;;;14.60;1.33;;;15.80;1.00;;;;;;5025526;28;20492;-86
2024/03/31 10:10:08;;;;;;;20.80;1.33;;;16.00;1.00;;;;;;5024439;28;20439;-86
2024/03/31 10:12:34;;;;;;;13.40;1.10;;;16.10;1.00;;;;;;5043876;28;20839;-86
2024/03/31 10:15:01;;;;;;;14.20;1.03;;;16.10;1.00;;;;;;5041544;28;20408;-86
2024/03/31 10:17:31;;;;;;;12.30;0.90;;;16.20;1.00;;;;;;5041549;28;20400;-86
2024/03/31 10:19:58;;;;;;;14.03;1.90;;;16.40;1.00;;;;;;5042040;28;20405;-86
2024/03/31 10:22:24;;;;;;;15.00;1.30;;;16.50;1.00;;;;;;5041226;28;20436;-86
2024/03/31 10:24:52;;;;;;;15.33;0.90;;;16.70;1.00;;;;;;5023926;28;20448;-86
2024/03/31 10:27:19;;;;;;;14.23;1.27;;;16.90;1.00;;;;;;5041731;28;20412;-86
2024/03/31 10:29:45;;;;;;;15.10;1.50;;;17.10;1.00;;;;;;5022868;28;20409;-86
2024/03/31 10:32:11;;;;;;;12.73;1.00;;;17.10;1.00;;;;;;5038724;28;20913;-86
2024/03/31 10:34:38;;;;;;;14.90;1.43;;;17.20;1.00;;;;;;5042497;28;20412;-86
2024/03/31 10:37:08;;;;;;;20.80;1.23;;;17.20;1.00;;;;;;5024578;28;20500;-86
2024/03/31 10:39:35;;;;;;;16.00;1.00;;;17.10;1.00;;;;;;5023958;28;20413;-86
2024/03/31 10:42:01;;;;;;;17.57;1.33;;;17.30;1.00;;;;;;5023819;28;20440;-86
2024/03/31 10:44:27;;;;;;;16.20;1.47;;;17.20;1.00;;;;;;5038730;28;20443;-86
2024/03/31 10:46:54;;;;;;;14.80;1.50;;;17.50;1.00;;;;;;5020903;28;20453;-86
2024/03/31 10:49:31;;;;;;;15.23;1.33;;;17.80;1.00;;;;;;5022288;28;20408;-86
2024/03/31 10:51:59;;;;;;;19.27;1.60;;;18.00;1.00;;;;;;5041122;28;20424;-86
2024/03/31 10:54:28;;;;;;;15.67;1.83;;;18.20;1.00;;;;;;5020003;28;20447;-86
2024/03/31 10:57:03;;;;;;;14.40;1.80;;;18.40;1.00;;;;;;5037540;28;20462;-86
2024/03/31 10:59:30;;;;;;;13.97;1.03;;;18.40;1.00;;;;;;5036223;28;20837;-86
2024/03/31 11:02:09;;;;;;;15.20;1.50;;;18.10;1.00;;;;;;5036907;28;20439;-85
2024/03/31 11:04:35;;;;;;;15.87;1.53;;;17.80;1.00;;;;;;5020384;28;20436;-85
2024/03/31 11:07:04;;;;;;;15.27;1.50;;;17.90;1.00;;;;;;5018821;28;20810;-86
2024/03/31 11:09:30;;;;;;;16.40;1.90;;;18.00;1.00;;;;;;5037185;28;20202;-86
2024/03/31 11:11:57;;;;;;;19.50;2.63;;;18.10;1.00;;;;;;5035843;28;20925;-85
2024/03/31 11:14:24;;;;;;;15.03;1.73;;;18.30;1.00;;;;;;5036263;28;20174;-86
2024/03/31 11:16:51;;;;;;;19.40;2.47;;;18.60;1.00;;;;;;5038510;28;20440;-85
2024/03/31 11:19:20;;;;;;;15.70;1.87;;;18.60;1.00;;;;;;5036655;28;20409;-86
2024/03/31 11:21:46;;;;;;;18.77;2.10;;;18.70;1.00;;;;;;5035812;28;20478;-86
2024/03/31 11:24:14;;;;;;;13.70;1.20;;;18.80;1.00;;;;;;5018212;28;20444;-86
2024/03/31 11:26:40;;;;;;;14.43;1.33;;;18.70;1.00;;;;;;5017649;28;20413;-86
2024/03/31 11:29:08;;;;;;;20.70;3.80;;;18.60;1.00;;;;;;5035810;28;20402;-86
2024/03/31 11:31:36;;;;;;;15.90;1.70;;;18.40;1.00;;;;;;5035964;28;20420;-86
2024/03/31 11:34:03;;;;;;;12.77;1.20;;;18.40;1.00;;;;;;5035091;28;20751;-86
2024/03/31 11:36:29;;;;;;;13.43;1.07;;;18.50;1.00;;;;;;5017759;28;20421;-85
2024/03/31 11:38:54;;;;;;;12.30;0.80;;;18.60;1.00;;;;;;5035305;28;20416;-86
2024/03/31 11:41:20;;;;;;;12.30;1.20;;;18.70;1.00;;;;;;5035292;28;20678;-86
2024/03/31 11:43:46;;;;;;;13.70;1.17;;;19.00;1.00;;;;;;5036302;28;20284;-86
2024/03/31 11:46:12;;;;;;;14.50;2.03;;;19.00;1.00;;;;;;5035480;28;20413;-85
2024/03/31 11:48:38;;;;;;;14.50;1.10;;;19.10;1.00;;;;;;5036241;28;20490;-86
2024/03/31 11:51:04;;;;;;;16.93;1.27;;;18.90;1.00;;;;;;5036210;28;20533;-86
2024/03/31 11:53:29;;;;;;;13.70;1.13;;;19.00;1.00;;;;;;5037195;28;20177;-86
2024/03/31 11:55:55;;;;;;;14.30;1.80;;;19.30;1.00;;;;;;5036453;28;20434;-85
2024/03/31 11:58:21;;;;;;;17.27;2.23;;;19.30;1.00;;;;;;5019660;28;20598;-85
2024/03/31 12:00:51;;;;;;;15.67;2.23;;;19.30;1.00;;;;;;5035813;28;20189;-86
2024/03/31 12:03:17;;;;;;;12.57;0.97;;;19.60;1.00;;;;;;5017588;28;20408;-86
2024/03/31 12:05:48;;;;;;;17.30;1.77;;;19.90;1.00;;;;;;5034600;28;20509;-86
2024/03/31 12:08:16;;;;;;;17.47;1.50;;;19.80;1.00;;;;;;5035039;28;20403;-86
2024/03/31 12:10:48;;;;;;;12.73;1.07;;;19.50;1.00;;;;;;5033996;28;20442;-86
2024/03/31 12:13:14;;;;;;;15.80;0.93;;;19.40;1.00;;;;;;5034854;28;20393;-86
2024/03/31 12:15:41;;;;;;;14.33;1.43;;;19.20;1.00;;;;;;5034903;28;20402;-86
2024/03/31 12:18:07;;;;;;;20.23;1.37;;;18.90;1.00;;;;;;5035275;28;20405;-86
2024/03/31 12:20:34;;;;;;;21.80;1.70;;;18.70;1.00;;;;;;5034908;28;20772;-86
2024/03/31 12:23:00;;;;;;;15.10;1.30;;;18.50;1.00;;;;;;5016747;28;20431;-85
2024/03/31 12:25:26;;;;;;;13.07;1.07;;;18.40;1.00;;;;;;5016885;28;20441;-86
2024/03/31 12:27:52;;;;;;;14.27;1.10;;;18.30;1.00;;;;;;5019535;28;20466;-86
2024/03/31 12:30:18;;;;;;;15.37;1.17;;;18.20;1.00;;;;;;5038738;28;20455;-86
2024/03/31 12:32:44;;;;;;;14.40;1.50;;;18.00;1.00;;;;;;5037795;28;20186;-86
2024/03/31 12:35:10;;;;;;;15.20;1.53;;;17.90;1.00;;;;;;5038346;28;20461;-86
2024/03/31 12:37:39;;;;;;;12.80;1.70;;;17.80;1.00;;;;;;5021323;28;20820;-86
2024/03/31 12:40:08;;;;;;;15.33;1.27;;;17.80;1.00;;;;;;5018612;28;20181;-86
2024/03/31 12:42:40;;;;;;;15.13;1.23;;;17.90;1.00;;;;;;5038663;28;20429;-86